Terminal Aerodrome Forecast
Issued by NWS Twin Cities, MN

Home | Current Version | Previous Version | Graphics & Text | Print | Product List | Glossary Off
Versions: 1 2 3 4 5 6 7 8 9 10 11 12 13 14 15

000
FTUS43 KMPX 302342
TAFSTC
TAF
KSTC 302342Z 3100/3124 16008KT P6SM BKN110
     FM310600 13006KT P6SM VCTS SCT050CB OVC080
      TEMPO 3106/3108 4SM TSRA OVC040CB
     FM311000 12006KT 6SM -SHRA OVC040
     FM311200 15008KT P6SM VCSH SCT020 BKN035
     FM311400 22006KT P6SM VCSH BKN020=

USA.gov is the U.S. government's official web portal to all federal, state and local government web resources and services.